sensor_id;sensor_type;location;lat;lon;timestamp;pressure;altitude;pressure_sealevel;temperature;humidity
56568;BME280;42456;49.956;20.004;2023-04-01T00:01:53;96602.63;;;9.93;64.04
56568;BME280;42456;49.956;20.004;2023-04-01T00:04:21;96601.65;;;9.94;64.12
56568;BME280;42456;49.956;20.004;2023-04-01T00:06:48;96603.15;;;9.96;64.25
56568;BME280;42456;49.956;20.004;2023-04-01T00:09:15;96600.09;;;9.98;64.32
56568;BME280;42456;49.956;20.004;2023-04-01T00:11:41;96601.04;;;10.00;64.40
56568;BME280;42456;49.956;20.004;2023-04-01T00:14:09;96596.91;;;10.01;64.38
56568;BME280;42456;49.956;20.004;2023-04-01T00:16:36;96597.98;;;10.02;64.37
56568;BME280;42456;49.956;20.004;2023-04-01T00:19:03;96597.45;;;10.01;64.39
56568;BME280;42456;49.956;20.004;2023-04-01T00:21:30;96588.45;;;10.01;64.67
56568;BME280;42456;49.956;20.004;2023-04-01T00:23:57;96585.15;;;9.99;64.58
56568;BME280;42456;49.956;20.004;2023-04-01T00:26:24;96577.52;;;9.96;64.54
56568;BME280;42456;49.956;20.004;2023-04-01T00:28:51;96577.55;;;9.93;64.79
56568;BME280;42456;49.956;20.004;2023-04-01T00:31:19;96572.89;;;9.88;64.76
56568;BME280;42456;49.956;20.004;2023-04-01T00:33:46;96569.77;;;9.84;65.01
56568;BME280;42456;49.956;20.004;2023-04-01T00:36:16;96566.10;;;9.79;64.83
56568;BME280;42456;49.956;20.004;2023-04-01T00:38:43;96565.27;;;9.75;65.22
56568;BME280;42456;49.956;20.004;2023-04-01T00:41:12;96564.51;;;9.70;65.37
56568;BME280;42456;49.956;20.004;2023-04-01T00:43:43;96562.54;;;9.66;65.55
56568;BME280;42456;49.956;20.004;2023-04-01T00:46:11;96565.56;;;9.62;65.62
56568;BME280;42456;49.956;20.004;2023-04-01T00:48:42;96565.06;;;9.59;65.54
56568;BME280;42456;49.956;20.004;2023-04-01T00:51:25;96566.54;;;9.55;65.86
56568;BME280;42456;49.956;20.004;2023-04-01T00:53:56;96569.36;;;9.54;65.84
56568;BME280;42456;49.956;20.004;2023-04-01T00:56:29;96572.65;;;9.53;65.87
56568;BME280;42456;49.956;20.004;2023-04-01T00:59:21;96570.65;;;9.52;65.88
56568;BME280;42456;49.956;20.004;2023-04-01T01:01:49;96568.41;;;9.53;66.17
56568;BME280;42456;49.956;20.004;2023-04-01T01:04:35;96568.45;;;9.55;66.36
56568;BME280;42456;49.956;20.004;2023-04-01T01:12:31;96567.44;;;9.59;66.43
56568;BME280;42456;49.956;20.004;2023-04-01T01:31:36;96581.00;;;9.58;66.85
56568;BME280;42456;49.956;20.004;2023-04-01T01:37:03;96574.45;;;9.56;66.93
56568;BME280;42456;49.956;20.004;2023-04-01T01:39:34;96575.14;;;9.55;66.93
56568;BME280;42456;49.956;20.004;2023-04-01T01:42:06;96575.59;;;9.55;66.71
56568;BME280;42456;49.956;20.004;2023-04-01T01:44:35;96575.42;;;9.54;67.07
56568;BME280;42456;49.956;20.004;2023-04-01T01:47:03;96575.32;;;9.52;66.94
56568;BME280;42456;49.956;20.004;2023-04-01T01:49:33;96584.60;;;9.52;67.06
56568;BME280;42456;49.956;20.004;2023-04-01T01:52:01;96586.77;;;9.53;67.15
56568;BME280;42456;49.956;20.004;2023-04-01T01:54:27;96587.61;;;9.54;67.05
56568;BME280;42456;49.956;20.004;2023-04-01T01:57:15;96593.15;;;9.55;67.25
56568;BME280;42456;49.956;20.004;2023-04-01T01:59:46;96594.42;;;9.59;67.19
56568;BME280;42456;49.956;20.004;2023-04-01T02:02:14;96595.08;;;9.61;67.36
56568;BME280;42456;49.956;20.004;2023-04-01T02:04:43;96590.35;;;9.64;67.39
56568;BME280;42456;49.956;20.004;2023-04-01T02:07:24;96592.66;;;9.64;67.22
56568;BME280;42456;49.956;20.004;2023-04-01T02:09:53;96596.67;;;9.65;67.35
56568;BME280;42456;49.956;20.004;2023-04-01T02:12:22;96593.35;;;9.65;67.23
56568;BME280;42456;49.956;20.004;2023-04-01T02:15:00;96598.42;;;9.65;67.34
56568;BME280;42456;49.956;20.004;2023-04-01T02:17:33;96597.80;;;9.65;67.20
56568;BME280;42456;49.956;20.004;2023-04-01T02:20:09;96592.02;;;9.62;67.16
56568;BME280;42456;49.956;20.004;2023-04-01T02:22:40;96599.23;;;9.57;67.09
56568;BME280;42456;49.956;20.004;2023-04-01T02:25:15;96603.16;;;9.53;66.96
56568;BME280;42456;49.956;20.004;2023-04-01T02:27:44;96603.80;;;9.49;67.12
56568;BME280;42456;49.956;20.004;2023-04-01T02:30:16;96601.91;;;9.46;67.08
56568;BME280;42456;49.956;20.004;2023-04-01T02:32:45;96597.33;;;9.43;67.22
56568;BME280;42456;49.956;20.004;2023-04-01T02:35:15;96603.89;;;9.40;67.27
56568;BME280;42456;49.956;20.004;2023-04-01T02:37:44;96604.60;;;9.36;67.42
56568;BME280;42456;49.956;20.004;2023-04-01T02:40:15;96607.63;;;9.33;67.23
56568;BME280;42456;49.956;20.004;2023-04-01T02:42:42;96610.29;;;9.32;67.57
56568;BME280;42456;49.956;20.004;2023-04-01T02:45:11;96609.73;;;9.32;67.52
56568;BME280;42456;49.956;20.004;2023-04-01T02:47:38;96610.67;;;9.32;67.44
56568;BME280;42456;49.956;20.004;2023-04-01T02:50:19;96611.42;;;9.32;67.38
56568;BME280;42456;49.956;20.004;2023-04-01T02:52:46;96613.30;;;9.34;67.57
56568;BME280;42456;49.956;20.004;2023-04-01T02:55:13;96615.94;;;9.35;67.77
56568;BME280;42456;49.956;20.004;2023-04-01T02:57:39;96618.66;;;9.38;67.47
56568;BME280;42456;49.956;20.004;2023-04-01T03:00:07;96621.52;;;9.40;67.70
56568;BME280;42456;49.956;20.004;2023-04-01T03:02:38;96615.86;;;9.41;67.43
56568;BME280;42456;49.956;20.004;2023-04-01T03:05:06;96614.18;;;9.41;67.51
56568;BME280;42456;49.956;20.004;2023-04-01T03:07:33;96617.83;;;9.39;67.56
56568;BME280;42456;49.956;20.004;2023-04-01T03:10:01;96618.86;;;9.37;67.64
56568;BME280;42456;49.956;20.004;2023-04-01T03:12:27;96620.33;;;9.33;67.68
56568;BME280;42456;49.956;20.004;2023-04-01T03:14:54;96619.90;;;9.29;67.79
56568;BME280;42456;49.956;20.004;2023-04-01T03:17:21;96617.69;;;9.25;67.89
56568;BME280;42456;49.956;20.004;2023-04-01T03:19:48;96616.02;;;9.21;68.01
56568;BME280;42456;49.956;20.004;2023-04-01T03:22:15;96616.17;;;9.17;68.23
56568;BME280;42456;49.956;20.004;2023-04-01T03:24:42;96612.96;;;9.12;68.44
56568;BME280;42456;49.956;20.004;2023-04-01T03:27:09;96614.34;;;9.08;68.26
56568;BME280;42456;49.956;20.004;2023-04-01T03:29:36;96617.52;;;9.06;68.75
56568;BME280;42456;49.956;20.004;2023-04-01T03:32:02;96617.83;;;9.06;68.92
56568;BME280;42456;49.956;20.004;2023-04-01T03:34:30;96617.47;;;9.07;69.03
56568;BME280;42456;49.956;20.004;2023-04-01T03:36:57;96616.35;;;9.10;68.81
56568;BME280;42456;49.956;20.004;2023-04-01T03:39:24;96614.42;;;9.13;69.01
56568;BME280;42456;49.956;20.004;2023-04-01T03:41:51;96613.16;;;9.16;69.25
56568;BME280;42456;49.956;20.004;2023-04-01T03:44:18;96615.20;;;9.19;68.94
56568;BME280;42456;49.956;20.004;2023-04-01T03:46:45;96616.23;;;9.21;69.06
56568;BME280;42456;49.956;20.004;2023-04-01T03:49:12;96616.27;;;9.23;69.09
56568;BME280;42456;49.956;20.004;2023-04-01T03:51:40;96617.83;;;9.24;69.34
56568;BME280;42456;49.956;20.004;2023-04-01T03:54:08;96617.08;;;9.25;69.13
56568;BME280;42456;49.956;20.004;2023-04-01T03:56:36;96621.23;;;9.26;69.17
56568;BME280;42456;49.956;20.004;2023-04-01T03:59:05;96619.92;;;9.26;69.13
56568;BME280;42456;49.956;20.004;2023-04-01T04:01:33;96623.98;;;9.26;69.47
56568;BME280;42456;49.956;20.004;2023-04-01T04:04:00;96626.33;;;9.24;69.20
56568;BME280;42456;49.956;20.004;2023-04-01T04:06:28;96626.00;;;9.22;69.22
56568;BME280;42456;49.956;20.004;2023-04-01T04:08:55;96630.81;;;9.21;69.28
56568;BME280;42456;49.956;20.004;2023-04-01T04:11:22;96629.55;;;9.19;69.52
56568;BME280;42456;49.956;20.004;2023-04-01T04:13:49;96630.69;;;9.19;69.43
56568;BME280;42456;49.956;20.004;2023-04-01T04:16:16;96636.71;;;9.17;69.70
56568;BME280;42456;49.956;20.004;2023-04-01T04:18:43;96639.94;;;9.17;69.58
56568;BME280;42456;49.956;20.004;2023-04-01T04:21:14;96636.19;;;9.18;69.36
56568;BME280;42456;49.956;20.004;2023-04-01T04:23:42;96642.52;;;9.20;69.69
56568;BME280;42456;49.956;20.004;2023-04-01T04:26:11;96644.77;;;9.22;69.56
56568;BME280;42456;49.956;20.004;2023-04-01T04:28:39;96643.58;;;9.24;69.48
56568;BME280;42456;49.956;20.004;2023-04-01T04:31:07;96641.16;;;9.27;69.41
56568;BME280;42456;49.956;20.004;2023-04-01T04:33:34;96642.05;;;9.29;69.52
56568;BME280;42456;49.956;20.004;2023-04-01T04:36:03;96640.15;;;9.30;69.47
56568;BME280;42456;49.956;20.004;2023-04-01T04:38:30;96637.33;;;9.31;69.52
56568;BME280;42456;49.956;20.004;2023-04-01T04:40:57;96632.97;;;9.31;69.38
56568;BME280;42456;49.956;20.004;2023-04-01T04:43:24;96636.73;;;9.33;69.50
56568;BME280;42456;49.956;20.004;2023-04-01T04:45:51;96634.91;;;9.33;69.80
56568;BME280;42456;49.956;20.004;2023-04-01T04:48:18;96640.96;;;9.33;69.53
56568;BME280;42456;49.956;20.004;2023-04-01T04:50:47;96637.80;;;9.33;69.68
56568;BME280;42456;49.956;20.004;2023-04-01T04:53:17;96638.95;;;9.32;69.86
56568;BME280;42456;49.956;20.004;2023-04-01T04:55:45;96641.17;;;9.32;69.93
56568;BME280;42456;49.956;20.004;2023-04-01T04:58:13;96638.14;;;9.30;69.93
56568;BME280;42456;49.956;20.004;2023-04-01T05:00:40;96639.98;;;9.30;69.77
56568;BME280;42456;49.956;20.004;2023-04-01T05:03:08;96638.70;;;9.31;69.96
56568;BME280;42456;49.956;20.004;2023-04-01T05:05:36;96641.93;;;9.31;69.94
56568;BME280;42456;49.956;20.004;2023-04-01T05:08:03;96643.73;;;9.34;69.90
56568;BME280;42456;49.956;20.004;2023-04-01T05:10:30;96642.64;;;9.37;69.76
56568;BME280;42456;49.956;20.004;2023-04-01T05:12:58;96646.92;;;9.42;69.89
56568;BME280;42456;49.956;20.004;2023-04-01T05:15:25;96648.70;;;9.47;69.93
56568;BME280;42456;49.956;20.004;2023-04-01T05:17:52;96647.29;;;9.50;69.75
56568;BME280;42456;49.956;20.004;2023-04-01T05:20:18;96646.20;;;9.54;69.83
56568;BME280;42456;49.956;20.004;2023-04-01T05:22:45;96646.31;;;9.57;69.99
56568;BME280;42456;49.956;20.004;2023-04-01T05:25:12;96647.52;;;9.61;69.91
56568;BME280;42456;49.956;20.004;2023-04-01T05:27:39;96649.08;;;9.63;69.78
56568;BME280;42456;49.956;20.004;2023-04-01T05:30:07;96650.63;;;9.63;69.77
56568;BME280;42456;49.956;20.004;2023-04-01T05:32:34;96651.55;;;9.64;69.93
56568;BME280;42456;49.956;20.004;2023-04-01T05:35:01;96652.69;;;9.63;69.93
56568;BME280;42456;49.956;20.004;2023-04-01T05:37:29;96651.21;;;9.63;69.92
56568;BME280;42456;49.956;20.004;2023-04-01T05:39:56;96653.74;;;9.62;70.27
56568;BME280;42456;49.956;20.004;2023-04-01T05:42:25;96653.67;;;9.63;70.30
56568;BME280;42456;49.956;20.004;2023-04-01T05:44:52;96651.70;;;9.69;70.33
56568;BME280;42456;49.956;20.004;2023-04-01T05:47:19;96647.32;;;9.79;70.48
56568;BME280;42456;49.956;20.004;2023-04-01T05:49:46;96649.83;;;9.88;70.40
56568;BME280;42456;49.956;20.004;2023-04-01T05:52:13;96650.33;;;9.97;70.26
56568;BME280;42456;49.956;20.004;2023-04-01T05:54:40;96649.84;;;10.05;70.09
56568;BME280;42456;49.956;20.004;2023-04-01T05:57:06;96648.16;;;10.16;70.13
56568;BME280;42456;49.956;20.004;2023-04-01T05:59:33;96652.05;;;10.32;70.15
56568;BME280;42456;49.956;20.004;2023-04-01T06:02:01;96646.00;;;10.53;70.07
56568;BME280;42456;49.956;20.004;2023-04-01T06:04:34;96643.90;;;10.79;69.84
56568;BME280;42456;49.956;20.004;2023-04-01T06:07:15;96642.02;;;11.08;69.65
56568;BME280;42456;49.956;20.004;2023-04-01T06:09:43;96641.23;;;11.30;69.49
56568;BME280;42456;49.956;20.004;2023-04-01T06:12:17;96640.29;;;11.47;69.08
56568;BME280;42456;49.956;20.004;2023-04-01T06:15:56;96637.18;;;11.62;68.89
56568;BME280;42456;49.956;20.004;2023-04-01T06:37:29;96643.23;;;11.66;66.01
56568;BME280;42456;49.956;20.004;2023-04-01T06:50:26;96650.13;;;11.75;66.45
56568;BME280;42456;49.956;20.004;2023-04-01T06:53:10;96649.48;;;11.81;66.32
56568;BME280;42456;49.956;20.004;2023-04-01T06:58:24;96652.11;;;11.96;65.92
56568;BME280;42456;49.956;20.004;2023-04-01T07:01:00;96650.16;;;12.05;65.76
56568;BME280;42456;49.956;20.004;2023-04-01T07:03:30;96653.21;;;12.14;65.82
56568;BME280;42456;49.956;20.004;2023-04-01T07:06:03;96649.72;;;12.24;65.58
56568;BME280;42456;49.956;20.004;2023-04-01T07:08:35;96644.58;;;12.28;65.59
56568;BME280;42456;49.956;20.004;2023-04-01T07:11:06;96642.90;;;12.32;65.62
56568;BME280;42456;49.956;20.004;2023-04-01T07:13:51;96647.46;;;12.31;65.45
56568;BME280;42456;49.956;20.004;2023-04-01T07:16:38;96645.27;;;12.28;65.14
56568;BME280;42456;49.956;20.004;2023-04-01T07:19:12;96646.20;;;12.28;65.19
56568;BME280;42456;49.956;20.004;2023-04-01T07:22:05;96642.90;;;12.31;65.01
56568;BME280;42456;49.956;20.004;2023-04-01T07:24:36;96648.40;;;12.38;64.74
56568;BME280;42456;49.956;20.004;2023-04-01T07:27:08;96648.70;;;12.56;65.15
56568;BME280;42456;49.956;20.004;2023-04-01T07:29:36;96649.36;;;12.70;64.85
56568;BME280;42456;49.956;20.004;2023-04-01T07:37:16;96645.40;;;12.94;64.01
56568;BME280;42456;49.956;20.004;2023-04-01T07:45:20;96645.78;;;13.19;63.74
56568;BME280;42456;49.956;20.004;2023-04-01T07:50:44;96649.65;;;13.34;62.76
56568;BME280;42456;49.956;20.004;2023-04-01T08:21:28;96667.02;;;12.72;61.80
56568;BME280;42456;49.956;20.004;2023-04-01T08:27:20;96668.38;;;12.64;62.14
56568;BME280;42456;49.956;20.004;2023-04-01T08:29:54;96668.57;;;12.78;62.55
56568;BME280;42456;49.956;20.004;2023-04-01T08:32:55;96669.23;;;12.95;62.50
56568;BME280;42456;49.956;20.004;2023-04-01T08:36:25;96662.50;;;13.09;61.76
56568;BME280;42456;49.956;20.004;2023-04-01T08:38:26;96661.13;;;13.14;61.38
56568;BME280;42456;49.956;20.004;2023-04-01T08:46:48;96664.46;;;13.25;60.97
56568;BME280;42456;49.956;20.004;2023-04-01T08:49:38;96666.09;;;13.37;61.15
56568;BME280;42456;49.956;20.004;2023-04-01T08:52:18;96662.38;;;13.57;61.30
56568;BME280;42456;49.956;20.004;2023-04-01T08:55:04;96656.59;;;13.83;61.46
56568;BME280;42456;49.956;20.004;2023-04-01T09:00:51;96652.31;;;14.34;60.29
56568;BME280;42456;49.956;20.004;2023-04-01T09:14:17;96659.09;;;14.64;58.12
56568;BME280;42456;49.956;20.004;2023-04-01T09:22:44;96653.39;;;14.89;57.90
56568;BME280;42456;49.956;20.004;2023-04-01T09:25:23;96653.36;;;14.80;57.37
56568;BME280;42456;49.956;20.004;2023-04-01T09:33:46;96658.71;;;14.63;56.86
56568;BME280;42456;49.956;20.004;2023-04-01T09:36:20;96655.79;;;14.57;56.64
56568;BME280;42456;49.956;20.004;2023-04-01T09:52:49;96660.55;;;14.66;56.40
56568;BME280;42456;49.956;20.004;2023-04-01T10:01:13;96667.61;;;14.39;56.28
56568;BME280;42456;49.956;20.004;2023-04-01T10:03:58;96675.98;;;14.26;56.61
56568;BME280;42456;49.956;20.004;2023-04-01T10:26:50;96686.30;;;13.45;58.50
56568;BME280;42456;49.956;20.004;2023-04-01T10:37:43;96701.34;;;13.35;59.07
56568;BME280;42456;49.956;20.004;2023-04-01T10:43:12;96707.02;;;13.16;59.20
56568;BME280;42456;49.956;20.004;2023-04-01T10:51:48;96711.24;;;13.09;59.93
56568;BME280;42456;49.956;20.004;2023-04-01T11:14:01;96699.27;;;13.96;59.90
56568;BME280;42456;49.956;20.004;2023-04-01T11:23:22;96697.92;;;14.26;58.39
56568;BME280;42456;49.956;20.004;2023-04-01T11:33:44;96692.60;;;14.51;57.72
56568;BME280;42456;49.956;20.004;2023-04-01T11:39:15;96691.92;;;14.45;57.78
56568;BME280;42456;49.956;20.004;2023-04-01T11:42:20;96685.59;;;14.47;58.10
56568;BME280;42456;49.956;20.004;2023-04-01T11:45:15;96681.85;;;14.55;57.79
56568;BME280;42456;49.956;20.004;2023-04-01T11:50:38;96684.96;;;14.51;57.13
56568;BME280;42456;49.956;20.004;2023-04-01T11:53:15;96684.56;;;14.50;56.95
56568;BME280;42456;49.956;20.004;2023-04-01T12:01:30;96684.02;;;14.73;57.03
56568;BME280;42456;49.956;20.004;2023-04-01T12:09:25;96698.23;;;14.31;55.91
56568;BME280;42456;49.956;20.004;2023-04-01T12:26:32;96702.17;;;14.29;59.06
56568;BME280;42456;49.956;20.004;2023-04-01T12:45:54;96714.73;;;14.44;57.25
56568;BME280;42456;49.956;20.004;2023-04-01T13:06:18;96722.66;;;14.94;57.02
56568;BME280;42456;49.956;20.004;2023-04-01T13:11:19;96726.77;;;14.75;56.37
56568;BME280;42456;49.956;20.004;2023-04-01T13:25:22;96743.42;;;14.34;59.11
56568;BME280;42456;49.956;20.004;2023-04-01T13:28:00;96745.66;;;14.33;59.27
56568;BME280;42456;49.956;20.004;2023-04-01T13:36:34;96752.30;;;14.12;60.23
56568;BME280;42456;49.956;20.004;2023-04-01T13:44:47;96748.29;;;13.94;61.19
56568;BME280;42456;49.956;20.004;2023-04-01T14:01:18;96763.29;;;13.87;60.85
56568;BME280;42456;49.956;20.004;2023-04-01T14:12:44;96751.45;;;13.61;62.44
56568;BME280;42456;49.956;20.004;2023-04-01T14:18:53;96748.67;;;13.60;62.84
56568;BME280;42456;49.956;20.004;2023-04-01T14:32:03;96750.75;;;13.58;62.47
56568;BME280;42456;49.956;20.004;2023-04-01T14:45:59;96769.45;;;13.31;62.95
56568;BME280;42456;49.956;20.004;2023-04-01T14:51:34;96760.66;;;13.28;63.16
56568;BME280;42456;49.956;20.004;2023-04-01T14:59:26;96763.21;;;13.31;64.15
56568;BME280;42456;49.956;20.004;2023-04-01T15:02:18;96763.30;;;13.32;64.57
56568;BME280;42456;49.956;20.004;2023-04-01T15:27:51;96766.60;;;13.04;65.08
56568;BME280;42456;49.956;20.004;2023-04-01T15:30:31;96775.35;;;12.99;64.83
56568;BME280;42456;49.956;20.004;2023-04-01T15:38:26;96782.61;;;12.87;64.30
56568;BME280;42456;49.956;20.004;2023-04-01T15:54:25;96811.59;;;12.45;64.76
56568;BME280;42456;49.956;20.004;2023-04-01T16:02:38;96819.51;;;12.42;65.49
56568;BME280;42456;49.956;20.004;2023-04-01T16:13:55;96825.48;;;12.28;66.95
56568;BME280;42456;49.956;20.004;2023-04-01T16:16:39;96826.39;;;12.24;67.23
56568;BME280;42456;49.956;20.004;2023-04-01T16:21:54;96835.47;;;12.14;67.77
56568;BME280;42456;49.956;20.004;2023-04-01T16:27:10;96843.14;;;12.02;68.14
56568;BME280;42456;49.956;20.004;2023-04-01T16:30:45;96847.09;;;11.96;68.28
56568;BME280;42456;49.956;20.004;2023-04-01T16:35:52;96857.29;;;11.83;68.99
56568;BME280;42456;49.956;20.004;2023-04-01T16:38:43;96861.48;;;11.80;69.49
56568;BME280;42456;49.956;20.004;2023-04-01T16:41:32;96862.21;;;11.75;69.70
56568;BME280;42456;49.956;20.004;2023-04-01T16:44:23;96869.92;;;11.71;70.12
56568;BME280;42456;49.956;20.004;2023-04-01T16:46:55;96874.41;;;11.65;70.27
56568;BME280;42456;49.956;20.004;2023-04-01T16:49:30;96876.39;;;11.59;70.29
56568;BME280;42456;49.956;20.004;2023-04-01T16:54:51;96878.27;;;11.41;70.19
56568;BME280;42456;49.956;20.004;2023-04-01T16:57:45;96876.78;;;11.33;70.20
56568;BME280;42456;49.956;20.004;2023-04-01T17:00:15;96886.68;;;11.24;70.61
56568;BME280;42456;49.956;20.004;2023-04-01T17:02:57;96889.18;;;11.17;70.76
56568;BME280;42456;49.956;20.004;2023-04-01T17:14:08;96904.58;;;10.89;71.43
56568;BME280;42456;49.956;20.004;2023-04-01T17:16:52;96909.66;;;10.85;71.60
56568;BME280;42456;49.956;20.004;2023-04-01T17:22:44;96918.46;;;10.77;72.07
56568;BME280;42456;49.956;20.004;2023-04-01T17:30:59;96918.58;;;10.58;72.60
56568;BME280;42456;49.956;20.004;2023-04-01T17:41:48;96935.60;;;10.34;73.07
56568;BME280;42456;49.956;20.004;2023-04-01T17:47:08;96938.27;;;10.27;73.05
56568;BME280;42456;49.956;20.004;2023-04-01T17:49:49;96941.59;;;10.25;73.01
56568;BME280;42456;49.956;20.004;2023-04-01T17:58:06;96951.63;;;10.23;73.19
56568;BME280;42456;49.956;20.004;2023-04-01T18:06:08;96955.83;;;10.18;73.49
56568;BME280;42456;49.956;20.004;2023-04-01T18:11:52;96961.48;;;10.12;73.92
56568;BME280;42456;49.956;20.004;2023-04-01T18:22:24;96971.86;;;10.02;74.59
56568;BME280;42456;49.956;20.004;2023-04-01T18:28:11;96977.67;;;10.01;74.81
56568;BME280;42456;49.956;20.004;2023-04-01T18:30:40;96983.12;;;10.01;75.12
56568;BME280;42456;49.956;20.004;2023-04-01T18:33:24;96985.76;;;10.03;74.95
56568;BME280;42456;49.956;20.004;2023-04-01T18:36:02;96986.45;;;10.03;75.03
56568;BME280;42456;49.956;20.004;2023-04-01T18:38:36;96988.30;;;10.03;75.34
56568;BME280;42456;49.956;20.004;2023-04-01T18:44:27;96987.98;;;9.98;75.14
56568;BME280;42456;49.956;20.004;2023-04-01T18:49:41;96999.75;;;9.92;75.37
56568;BME280;42456;49.956;20.004;2023-04-01T19:00:14;96998.91;;;9.81;75.78
56568;BME280;42456;49.956;20.004;2023-04-01T19:05:35;97010.55;;;9.79;76.11
56568;BME280;42456;49.956;20.004;2023-04-01T19:11:10;97014.39;;;9.79;76.20
56568;BME280;42456;49.956;20.004;2023-04-01T19:16:47;97022.55;;;9.78;76.52
56568;BME280;42456;49.956;20.004;2023-04-01T19:21:57;97025.67;;;9.73;76.57
56568;BME280;42456;49.956;20.004;2023-04-01T19:24:39;97025.83;;;9.69;76.79
56568;BME280;42456;49.956;20.004;2023-04-01T19:32:53;97040.56;;;9.62;77.05
56568;BME280;42456;49.956;20.004;2023-04-01T19:38:35;97044.52;;;9.61;77.28
56568;BME280;42456;49.956;20.004;2023-04-01T19:46:55;97050.48;;;9.62;77.59
56568;BME280;42456;49.956;20.004;2023-04-01T19:52:03;97052.72;;;9.64;77.99
56568;BME280;42456;49.956;20.004;2023-04-01T20:00:49;97068.33;;;9.58;78.16
56568;BME280;42456;49.956;20.004;2023-04-01T20:11:46;97080.63;;;9.49;78.36
56568;BME280;42456;49.956;20.004;2023-04-01T20:19:34;97084.98;;;9.49;78.59
56568;BME280;42456;49.956;20.004;2023-04-01T20:22:08;97086.75;;;9.49;78.72
56568;BME280;42456;49.956;20.004;2023-04-01T20:24:45;97084.09;;;9.50;79.08
56568;BME280;42456;49.956;20.004;2023-04-01T20:37:49;97099.48;;;9.51;79.32
56568;BME280;42456;49.956;20.004;2023-04-01T20:40:40;97101.34;;;9.49;79.48
56568;BME280;42456;49.956;20.004;2023-04-01T20:43:30;97100.58;;;9.46;79.54
56568;BME280;42456;49.956;20.004;2023-04-01T20:46:20;97102.04;;;9.43;79.57
56568;BME280;42456;49.956;20.004;2023-04-01T20:52:25;97104.98;;;9.38;80.08
56568;BME280;42456;49.956;20.004;2023-04-01T20:54:39;97105.48;;;9.37;80.09
56568;BME280;42456;49.956;20.004;2023-04-01T21:02:49;97109.37;;;9.39;80.55
56568;BME280;42456;49.956;20.004;2023-04-01T21:11:00;97121.80;;;9.39;80.34
56568;BME280;42456;49.956;20.004;2023-04-01T21:13:36;97122.74;;;9.37;80.54
56568;BME280;42456;49.956;20.004;2023-04-01T21:21:38;97133.09;;;9.30;80.72
56568;BME280;42456;49.956;20.004;2023-04-01T21:26:56;97139.30;;;9.28;80.96
56568;BME280;42456;49.956;20.004;2023-04-01T21:29:38;97141.37;;;9.27;81.11
56568;BME280;42456;49.956;20.004;2023-04-01T21:32:25;97141.77;;;9.28;80.75
56568;BME280;42456;49.956;20.004;2023-04-01T21:38:04;97145.07;;;9.28;81.02
56568;BME280;42456;49.956;20.004;2023-04-01T21:58:03;97153.29;;;9.20;81.41
56568;BME280;42456;49.956;20.004;2023-04-01T22:00:39;97153.41;;;9.18;81.69
56568;BME280;42456;49.956;20.004;2023-04-01T22:14:09;97156.70;;;9.21;81.51
56568;BME280;42456;49.956;20.004;2023-04-01T22:16:54;97161.81;;;9.23;81.77
56568;BME280;42456;49.956;20.004;2023-04-01T22:22:45;97165.76;;;9.24;81.74
56568;BME280;42456;49.956;20.004;2023-04-01T22:28:06;97165.55;;;9.23;81.68
56568;BME280;42456;49.956;20.004;2023-04-01T22:30:39;97166.45;;;9.22;81.98
56568;BME280;42456;49.956;20.004;2023-04-01T22:39:12;97165.18;;;9.17;82.00
56568;BME280;42456;49.956;20.004;2023-04-01T22:47:43;97176.98;;;9.19;82.01
56568;BME280;42456;49.956;20.004;2023-04-01T22:50:54;97175.00;;;9.20;82.13
56568;BME280;42456;49.956;20.004;2023-04-01T22:56:12;97183.04;;;9.23;81.90
56568;BME280;42456;49.956;20.004;2023-04-01T22:58:57;97179.50;;;9.22;82.18
56568;BME280;42456;49.956;20.004;2023-04-01T23:01:30;97184.44;;;9.21;82.22
56568;BME280;42456;49.956;20.004;2023-04-01T23:04:03;97185.39;;;9.19;82.05
56568;BME280;42456;49.956;20.004;2023-04-01T23:06:46;97189.23;;;9.16;82.27
56568;BME280;42456;49.956;20.004;2023-04-01T23:09:18;97188.23;;;9.13;82.30
56568;BME280;42456;49.956;20.004;2023-04-01T23:12:08;97191.40;;;9.11;82.37
56568;BME280;42456;49.956;20.004;2023-04-01T23:14:49;97192.30;;;9.10;82.42
56568;BME280;42456;49.956;20.004;2023-04-01T23:23:39;97197.67;;;9.11;82.34
56568;BME280;42456;49.956;20.004;2023-04-01T23:26:09;97195.92;;;9.11;82.54
56568;BME280;42456;49.956;20.004;2023-04-01T23:28:44;97197.76;;;9.11;82.65
56568;BME280;42456;49.956;20.004;2023-04-01T23:31:35;97198.49;;;9.13;82.92
56568;BME280;42456;49.956;20.004;2023-04-01T23:34:21;97202.91;;;9.15;82.21
56568;BME280;42456;49.956;20.004;2023-04-01T23:37:00;97205.23;;;9.15;82.57
56568;BME280;42456;49.956;20.004;2023-04-01T23:39:44;97210.83;;;9.16;82.69
56568;BME280;42456;49.956;20.004;2023-04-01T23:44:39;97206.63;;;9.13;82.55
56568;BME280;42456;49.956;20.004;2023-04-01T23:47:11;97207.09;;;9.10;82.80
56568;BME280;42456;49.956;20.004;2023-04-01T23:49:41;97210.79;;;9.08;82.57
56568;BME280;42456;49.956;20.004;2023-04-01T23:52:14;97210.73;;;9.06;83.03
56568;BME280;42456;49.956;20.004;2023-04-01T23:54:46;97209.48;;;9.05;82.78
56568;BME280;42456;49.956;20.004;2023-04-01T23:57:19;97211.31;;;9.05;82.67
